Time;durP1;ratioP1;P1;durP2;ratioP2;P2;SDS_P1;SDS_P2;PMS_P1;PMS_P2;Temp;Humidity;BMP_temperature;BMP_pressure;BME280_temperature;BME280_humidity;BME280_pressure;Samples;Min_cycle;Max_cycle;Signal;HPM_P1;HPM_P2
2023/12/16 00:00:57;;;;;;;61.70;17.13;;;;;5.30;98328.00;;;;8303648;28;20229;-84
2023/12/16 00:05:01;;;;;;;64.63;18.70;;;;;5.30;98319.00;;;;8303235;28;20610;-84
2023/12/16 00:09:05;;;;;;;63.23;18.80;;;;;5.30;98323.00;;;;8303101;28;20312;-84
2023/12/16 00:13:08;;;;;;;59.70;18.80;;;;;5.30;98335.00;;;;8303267;28;20608;-84
2023/12/16 00:17:22;;;;;;;64.83;18.43;;;;;5.30;98348.00;;;;8303154;28;20209;-84
2023/12/16 00:21:25;;;;;;;56.07;18.07;;;;;5.30;98367.00;;;;8304847;28;20727;-84
2023/12/16 00:25:29;;;;;;;62.57;17.73;;;;;5.30;98373.00;;;;8303150;28;20240;-84
2023/12/16 00:29:33;;;;;;;58.00;17.57;;;;;5.30;98378.00;;;;8302233;28;20243;-84
2023/12/16 00:33:36;;;;;;;63.30;17.63;;;;;5.30;98372.00;;;;8302921;28;20217;-84
2023/12/16 00:37:42;;;;;;;62.00;19.07;;;;;5.30;98370.00;;;;8302620;28;20288;-83
2023/12/16 00:41:46;;;;;;;63.90;18.83;;;;;5.30;98364.00;;;;8302649;28;20627;-84
2023/12/16 00:45:50;;;;;;;68.07;18.87;;;;;5.30;98366.00;;;;8301654;28;20559;-84
2023/12/16 00:49:53;;;;;;;57.10;17.87;;;;;5.30;98351.00;;;;8302119;28;20229;-84
2023/12/16 00:53:56;;;;;;;68.17;17.67;;;;;5.30;98344.00;;;;8302371;28;20639;-84
2023/12/16 00:58:00;;;;;;;69.17;19.73;;;;;5.30;98334.00;;;;8301399;28;20292;-83
2023/12/16 01:02:04;;;;;;;68.43;17.63;;;;;5.20;98339.00;;;;8301931;28;20284;-84
2023/12/16 01:06:07;;;;;;;64.00;17.87;;;;;5.30;98356.00;;;;8302781;28;20204;-83
2023/12/16 01:10:11;;;;;;;69.57;18.43;;;;;5.30;98371.00;;;;8300457;28;20222;-84
2023/12/16 01:14:16;;;;;;;73.23;19.93;;;;;5.30;98364.00;;;;8301641;28;20501;-84
2023/12/16 01:18:19;;;;;;;76.97;19.73;;;;;5.30;98373.00;;;;8300642;28;20182;-84
2023/12/16 01:22:22;;;;;;;72.20;19.77;;;;;5.40;98374.00;;;;8299374;28;20388;-83
2023/12/16 01:26:26;;;;;;;68.63;19.37;;;;;5.40;98383.00;;;;8301779;28;20665;-84
2023/12/16 01:30:31;;;;;;;73.90;19.57;;;;;5.40;98381.00;;;;8300268;28;20229;-83
2023/12/16 01:34:34;;;;;;;79.77;19.20;;;;;5.50;98385.00;;;;8301857;28;20178;-84
2023/12/16 01:38:37;;;;;;;71.80;20.37;;;;;5.50;98382.00;;;;8300653;28;20276;-84
2023/12/16 01:42:40;;;;;;;70.90;19.23;;;;;5.50;98380.00;;;;8300037;28;20230;-83
2023/12/16 01:46:53;;;;;;;67.13;19.37;;;;;5.50;98376.00;;;;8300546;28;20544;-82
2023/12/16 01:50:57;;;;;;;76.83;19.70;;;;;5.50;98383.00;;;;8299824;28;20210;-84
2023/12/16 01:55:00;;;;;;;82.47;21.23;;;;;5.50;98373.00;;;;8299807;28;20182;-83
2023/12/16 01:59:04;;;;;;;68.93;18.83;;;;;5.50;98364.00;;;;8299984;28;20194;-83
2023/12/16 02:03:08;;;;;;;66.70;18.97;;;;;5.50;98371.00;;;;8300549;28;20308;-82
2023/12/16 02:07:11;;;;;;;81.63;20.47;;;;;5.50;98382.00;;;;8299887;28;20277;-83
2023/12/16 02:11:15;;;;;;;73.30;19.87;;;;;5.50;98376.00;;;;8299715;28;20244;-82
2023/12/16 02:15:18;;;;;;;74.03;19.60;;;;;5.50;98383.00;;;;8300470;28;20524;-83
2023/12/16 02:19:26;;;;;;;68.07;20.17;;;;;5.50;98386.00;;;;8298605;28;20288;-83
2023/12/16 02:23:31;;;;;;;76.63;20.37;;;;;5.50;98397.00;;;;8299730;28;20187;-84
2023/12/16 02:27:34;;;;;;;75.23;20.53;;;;;5.50;98385.00;;;;8299398;28;20198;-84
2023/12/16 02:31:38;;;;;;;78.23;20.03;;;;;5.50;98386.00;;;;8299081;28;20221;-83
2023/12/16 02:35:42;;;;;;;67.43;20.77;;;;;5.50;98390.00;;;;8298779;28;20229;-83
2023/12/16 02:39:46;;;;;;;67.13;18.07;;;;;5.50;98380.00;;;;8299733;28;20500;-82
2023/12/16 02:43:49;;;;;;;75.50;19.63;;;;;5.50;98397.00;;;;8298999;28;20647;-82
2023/12/16 02:47:52;;;;;;;66.77;19.20;;;;;5.50;98405.00;;;;8300063;28;20284;-83
2023/12/16 02:51:58;;;;;;;77.50;18.83;;;;;5.50;98410.00;;;;8298461;28;20317;-83
2023/12/16 02:56:03;;;;;;;79.10;19.93;;;;;5.50;98403.00;;;;8297145;28;20189;-83
2023/12/16 03:04:25;;;;;;;71.60;18.93;;;;;5.50;98397.00;;;;8329698;22;20252;-80
2023/12/16 03:08:28;;;;;;;69.00;18.33;;;;;5.50;98401.00;;;;8314972;28;20687;-81
2023/12/16 03:12:33;;;;;;;72.00;17.57;;;;;5.50;98404.00;;;;8325968;28;20266;-81
2023/12/16 03:16:36;;;;;;;77.07;18.47;;;;;5.50;98410.00;;;;8317184;28;20626;-81
2023/12/16 03:20:39;;;;;;;79.33;18.70;;;;;5.50;98423.00;;;;8313932;28;20208;-81
2023/12/16 03:24:42;;;;;;;67.83;18.40;;;;;5.50;98425.00;;;;8319804;28;20198;-82
2023/12/16 03:28:47;;;;;;;60.63;17.93;;;;;5.50;98437.00;;;;8319141;28;20611;-81
2023/12/16 03:32:50;;;;;;;76.47;18.20;;;;;5.50;98441.00;;;;8320218;28;20233;-81
2023/12/16 03:36:53;;;;;;;75.70;18.47;;;;;5.50;98435.00;;;;8323177;28;20194;-81
2023/12/16 03:40:56;;;;;;;66.30;17.63;;;;;5.50;98410.00;;;;8318086;28;20220;-81
2023/12/16 03:45:02;;;;;;;78.63;18.13;;;;;5.50;98408.00;;;;8318045;28;20201;-81
2023/12/16 03:49:05;;;;;;;63.27;17.47;;;;;5.40;98408.00;;;;8315943;28;20197;-81
2023/12/16 03:53:08;;;;;;;70.00;18.50;;;;;5.40;98417.00;;;;8318001;28;20197;-81
2023/12/16 03:57:11;;;;;;;63.43;16.70;;;;;5.40;98411.00;;;;8327399;28;20208;-82
2023/12/16 04:01:16;;;;;;;73.03;18.03;;;;;5.40;98404.00;;;;8326680;28;20331;-81
2023/12/16 04:05:19;;;;;;;67.57;19.07;;;;;5.40;98413.00;;;;8293093;28;20646;-81
2023/12/16 04:09:22;;;;;;;78.17;19.50;;;;;5.40;98415.00;;;;8286722;28;20539;-81
2023/12/16 04:13:25;;;;;;;93.87;19.27;;;;;5.50;98406.00;;;;8290532;28;20657;-81
2023/12/16 04:17:30;;;;;;;90.43;18.60;;;;;5.50;98415.00;;;;8292461;28;20288;-81
2023/12/16 04:21:33;;;;;;;80.17;19.27;;;;;5.50;98423.00;;;;8281231;28;21113;-81
2023/12/16 04:25:36;;;;;;;76.80;18.83;;;;;5.50;98428.00;;;;8292362;28;20301;-81
2023/12/16 04:29:39;;;;;;;74.27;18.50;;;;;5.50;98438.00;;;;8292489;28;20305;-81
2023/12/16 04:33:44;;;;;;;82.93;20.03;;;;;5.50;98442.00;;;;8296348;28;20210;-82
2023/12/16 04:37:47;;;;;;;83.97;19.63;;;;;5.50;98455.00;;;;8285873;28;20213;-82
2023/12/16 04:41:50;;;;;;;85.87;20.37;;;;;5.50;98453.00;;;;8296434;28;20285;-81
2023/12/16 04:45:53;;;;;;;78.93;20.07;;;;;5.50;98447.00;;;;8295540;28;20208;-82
2023/12/16 04:49:58;;;;;;;79.97;20.43;;;;;5.50;98455.00;;;;8291870;28;20234;-82
2023/12/16 04:54:02;;;;;;;83.20;19.57;;;;;5.50;98472.00;;;;8291521;28;20224;-81
2023/12/16 04:58:06;;;;;;;80.93;19.30;;;;;5.50;98461.00;;;;8293242;28;20701;-82
2023/12/16 05:02:09;;;;;;;66.83;19.00;;;;;5.50;98450.00;;;;8293000;28;20713;-82
2023/12/16 05:06:14;;;;;;;71.47;18.90;;;;;5.50;98437.00;;;;8292730;28;20200;-82
2023/12/16 05:10:17;;;;;;;74.03;20.30;;;;;5.40;98435.00;;;;8291005;28;20228;-82
2023/12/16 05:14:20;;;;;;;75.10;19.13;;;;;5.40;98428.00;;;;8282819;28;20202;-82
2023/12/16 05:18:25;;;;;;;77.83;18.47;;;;;5.40;98421.00;;;;8283980;28;20663;-82
2023/12/16 05:22:33;;;;;;;86.77;20.10;;;;;5.40;98413.00;;;;8281783;28;20205;-82
2023/12/16 05:26:36;;;;;;;76.93;18.77;;;;;5.30;98423.00;;;;8283538;28;20194;-82
2023/12/16 05:30:40;;;;;;;79.83;19.90;;;;;5.30;98425.00;;;;8281566;28;20243;-82
2023/12/16 05:34:43;;;;;;;72.63;20.67;;;;;5.30;98420.00;;;;8285592;28;20607;-82
2023/12/16 05:38:47;;;;;;;76.93;19.90;;;;;5.30;98431.00;;;;8281695;28;20584;-82
2023/12/16 05:42:50;;;;;;;83.00;19.30;;;;;5.30;98430.00;;;;8285598;28;20201;-82
2023/12/16 05:46:54;;;;;;;78.80;18.73;;;;;5.30;98455.00;;;;8290872;28;20635;-82
2023/12/16 05:50:57;;;;;;;84.73;19.60;;;;;5.30;98466.00;;;;8293447;28;20684;-82
2023/12/16 05:55:01;;;;;;;76.73;19.13;;;;;5.30;98469.00;;;;8299939;28;20208;-81
2023/12/16 05:59:05;;;;;;;66.57;16.80;;;;;5.30;98441.00;;;;8283265;28;20286;-81
2023/12/16 06:03:08;;;;;;;85.63;19.20;;;;;5.20;98458.00;;;;8284319;28;20758;-82
2023/12/16 06:07:11;;;;;;;81.33;17.07;;;;;5.20;98472.00;;;;8286265;28;20224;-82
2023/12/16 06:11:16;;;;;;;84.83;19.00;;;;;5.20;98476.00;;;;8286264;28;20222;-82
2023/12/16 06:15:19;;;;;;;91.93;18.77;;;;;5.20;98466.00;;;;8289630;28;20197;-82
2023/12/16 06:19:23;;;;;;;87.57;17.50;;;;;5.20;98467.00;;;;8285679;28;20198;-80
2023/12/16 06:23:31;;;;;;;92.10;19.57;;;;;5.10;98482.00;;;;8281326;28;20285;-80
2023/12/16 06:27:35;;;;;;;91.97;20.13;;;;;5.20;98479.00;;;;8279884;28;20237;-81
2023/12/16 06:31:39;;;;;;;87.33;20.33;;;;;5.20;98477.00;;;;8282841;28;20237;-79
2023/12/16 06:35:42;;;;;;;83.13;20.93;;;;;5.30;98477.00;;;;8291312;28;20257;-79
2023/12/16 06:39:45;;;;;;;86.07;20.33;;;;;5.30;98463.00;;;;8289376;28;20198;-78
2023/12/16 06:43:50;;;;;;;91.37;20.60;;;;;5.20;98474.00;;;;8279487;28;20206;-80
2023/12/16 06:47:53;;;;;;;98.00;21.33;;;;;5.30;98483.00;;;;8278786;28;20285;-78
2023/12/16 06:51:57;;;;;;;88.57;20.77;;;;;5.30;98493.00;;;;8276214;28;20230;-79
2023/12/16 06:56:00;;;;;;;88.73;20.63;;;;;5.30;98493.00;;;;8277972;28;20264;-80
2023/12/16 07:00:06;;;;;;;91.07;19.93;;;;;5.30;98489.00;;;;8280361;28;20803;-80
2023/12/16 07:04:09;;;;;;;96.50;20.27;;;;;5.30;98482.00;;;;8289722;28;20674;-81
2023/12/16 07:08:13;;;;;;;85.57;19.87;;;;;5.30;98499.00;;;;8284595;28;20201;-81
2023/12/16 07:12:16;;;;;;;96.93;20.63;;;;;5.30;98490.00;;;;8282778;28;20256;-81
2023/12/16 07:16:20;;;;;;;97.33;20.87;;;;;5.30;98488.00;;;;8279562;28;20289;-82
2023/12/16 07:20:24;;;;;;;95.20;22.07;;;;;5.30;98505.00;;;;8282743;28;20198;-82
2023/12/16 07:24:27;;;;;;;102.53;22.27;;;;;5.40;98504.00;;;;8287880;28;20226;-81
2023/12/16 07:28:30;;;;;;;99.67;21.97;;;;;5.40;98501.00;;;;8289226;28;20296;-81
2023/12/16 07:32:35;;;;;;;96.20;20.80;;;;;5.40;98498.00;;;;8288859;28;20233;-80
2023/12/16 07:36:38;;;;;;;97.57;21.00;;;;;5.40;98493.00;;;;8284575;28;20194;-82
2023/12/16 07:40:41;;;;;;;91.97;20.73;;;;;5.50;98495.00;;;;8288174;28;20218;-82
2023/12/16 07:44:44;;;;;;;102.40;22.13;;;;;5.50;98492.00;;;;8285242;28;20222;-81
2023/12/16 07:48:49;;;;;;;102.60;21.20;;;;;5.50;98491.00;;;;8287540;28;20252;-82
2023/12/16 07:52:52;;;;;;;109.00;23.17;;;;;5.60;98486.00;;;;8291520;28;20230;-80
2023/12/16 07:56:55;;;;;;;102.40;22.73;;;;;5.60;98488.00;;;;8286172;28;20409;-81
2023/12/16 08:00:58;;;;;;;110.60;21.80;;;;;5.60;98487.00;;;;8289910;28;20241;-80
2023/12/16 08:05:04;;;;;;;81.83;21.17;;;;;5.70;98494.00;;;;8296754;28;20227;-79
2023/12/16 08:09:07;;;;;;;83.57;20.43;;;;;5.70;98521.00;;;;8292960;28;20568;-82
2023/12/16 08:13:10;;;;;;;93.17;20.20;;;;;5.80;98530.00;;;;8290273;28;20230;-80
2023/12/16 08:17:13;;;;;;;100.87;22.67;;;;;5.80;98527.00;;;;8292042;28;20211;-79
2023/12/16 08:21:20;;;;;;;95.17;21.67;;;;;5.90;98534.00;;;;8285570;28;20202;-80
2023/12/16 08:25:23;;;;;;;107.27;21.43;;;;;5.90;98550.00;;;;8290081;28;20213;-81
2023/12/16 08:29:27;;;;;;;97.07;21.07;;;;;5.90;98553.00;;;;8283794;28;20244;-83
2023/12/16 08:33:30;;;;;;;101.63;22.53;;;;;5.90;98539.00;;;;8293364;28;20375;-82
2023/12/16 08:37:35;;;;;;;91.47;22.33;;;;;5.90;98557.00;;;;8286474;28;20202;-80
2023/12/16 08:41:39;;;;;;;90.33;21.83;;;;;6.00;98558.00;;;;8290624;28;20233;-81
2023/12/16 08:45:42;;;;;;;82.93;20.87;;;;;6.00;98573.00;;;;8297094;28;20641;-82
2023/12/16 08:49:45;;;;;;;95.03;22.27;;;;;6.10;98579.00;;;;8287265;28;20316;-81
2023/12/16 08:53:53;;;;;;;88.87;21.80;;;;;6.20;98582.00;;;;8285470;28;20236;-82
2023/12/16 08:57:56;;;;;;;110.50;23.70;;;;;6.30;98572.00;;;;8294732;28;20297;-82
2023/12/16 09:02:00;;;;;;;97.17;21.07;;;;;6.30;98579.00;;;;8286965;28;20196;-82
2023/12/16 09:06:03;;;;;;;94.03;23.83;;;;;6.40;98579.00;;;;8292625;28;20253;-81
2023/12/16 09:10:08;;;;;;;82.53;21.43;;;;;6.50;98569.00;;;;8289689;28;20197;-82
2023/12/16 09:14:12;;;;;;;95.47;21.23;;;;;6.40;98567.00;;;;8289375;28;20241;-84
2023/12/16 09:18:15;;;;;;;98.10;21.43;;;;;6.30;98586.00;;;;8285804;28;20246;-78
2023/12/16 09:22:19;;;;;;;95.87;23.27;;;;;6.30;98597.00;;;;8286052;28;20792;-83
2023/12/16 09:26:24;;;;;;;85.90;22.13;;;;;6.60;98615.00;;;;8294321;28;20698;-82
2023/12/16 09:30:27;;;;;;;86.07;21.03;;;;;6.90;98619.00;;;;8282759;28;20202;-81
2023/12/16 09:34:30;;;;;;;92.73;22.10;;;;;7.20;98627.00;;;;8290227;28;20229;-81
2023/12/16 09:38:34;;;;;;;72.60;19.63;;;;;7.30;98634.00;;;;8284287;28;20208;-80
2023/12/16 09:42:38;;;;;;;69.90;20.10;;;;;7.30;98626.00;;;;8287207;28;20221;-80
2023/12/16 09:46:42;;;;;;;71.47;20.77;;;;;7.40;98638.00;;;;8295953;28;20230;-83
2023/12/16 09:50:46;;;;;;;71.03;21.07;;;;;7.40;98636.00;;;;8288765;28;20209;-80
2023/12/16 09:54:49;;;;;;;62.47;19.92;;;;;7.40;98648.00;;;;8285399;28;20237;-82
2023/12/16 09:58:56;;;;;;;69.45;19.85;;;;;7.40;98640.00;;;;8284355;28;20210;-81
2023/12/16 10:03:00;;;;;;;74.28;19.95;;;;;7.40;98643.00;;;;8287035;28;20226;-80
2023/12/16 10:07:04;;;;;;;70.60;20.73;;;;;7.30;98631.00;;;;8291723;28;20206;-83
2023/12/16 10:11:08;;;;;;;72.38;20.80;;;;;7.30;98614.00;;;;8284888;28;20197;-81
2023/12/16 10:15:29;;;;;;;65.63;20.30;;;;;7.30;98599.00;;;;8288585;28;20235;-81
2023/12/16 10:19:33;;;;;;;68.97;20.70;;;;;7.30;98589.00;;;;8285388;28;20620;-80
2023/12/16 10:23:38;;;;;;;69.53;20.27;;;;;7.30;98584.00;;;;8280896;28;20202;-78
2023/12/16 10:27:43;;;;;;;68.93;20.20;;;;;7.30;98574.00;;;;8275324;28;20212;-80
2023/12/16 10:31:47;;;;;;;62.80;18.77;;;;;7.40;98590.00;;;;8281010;28;20272;-81
2023/12/16 10:35:51;;;;;;;63.37;20.40;;;;;7.50;98585.00;;;;8273774;28;20198;-81
2023/12/16 10:39:54;;;;;;;60.40;19.30;;;;;7.60;98581.00;;;;8289646;28;20295;-81
2023/12/16 10:43:57;;;;;;;60.63;18.93;;;;;7.80;98570.00;;;;8277253;28;20637;-81
2023/12/16 10:48:06;;;;;;;49.90;18.40;;;;;8.00;98542.00;;;;8278669;28;20195;-82
2023/12/16 10:52:13;;;;;;;57.63;17.97;;;;;8.10;98543.00;;;;8276474;28;20254;-81
2023/12/16 10:56:20;;;;;;;48.77;17.53;;;;;8.20;98552.00;;;;8276294;28;21035;-80
2023/12/16 11:00:26;;;;;;;45.20;17.67;;;;;8.40;98556.00;;;;8276463;28;20229;-79
2023/12/16 11:04:36;;;;;;;47.77;17.13;;;;;8.50;98547.00;;;;8283794;28;20676;-79
2023/12/16 11:08:40;;;;;;;43.22;17.52;;;;;8.60;98546.00;;;;8283149;28;20214;-79
2023/12/16 11:12:44;;;;;;;36.17;16.20;;;;;8.90;98551.00;;;;8285269;28;20587;-79
2023/12/16 11:17:02;;;;;;;34.35;15.80;;;;;8.60;98536.00;;;;8283181;28;20214;-80
2023/12/16 11:21:13;;;;;;;36.50;15.23;;;;;8.40;98537.00;;;;8284151;28;20318;-79
2023/12/16 11:25:19;;;;;;;30.70;13.68;;;;;8.30;98512.00;;;;8286621;28;20225;-79
2023/12/16 11:29:23;;;;;;;39.60;15.25;;;;;8.10;98515.00;;;;8284680;28;20245;-78
2023/12/16 11:33:42;;;;;;;29.45;14.82;;;;;8.30;98508.00;;;;8285735;28;20320;-79
2023/12/16 11:37:47;;;;;;;33.40;14.55;;;;;8.50;98501.00;;;;8291211;28;20238;-78
2023/12/16 11:41:51;;;;;;;30.40;14.05;;;;;8.70;98503.00;;;;8293518;28;20910;-77
2023/12/16 11:45:54;;;;;;;29.85;14.65;;;;;8.90;98491.00;;;;8284672;28;20292;-77
2023/12/16 11:49:59;;;;;;;27.10;13.52;;;;;9.10;98493.00;;;;8289641;28;20199;-77
2023/12/16 11:54:07;;;;;;;27.98;12.85;;;;;9.10;98496.00;;;;8278571;28;20276;-77
2023/12/16 11:58:10;;;;;;;31.40;12.15;;;;;9.00;98499.00;;;;8285289;28;20683;-77
2023/12/16 12:02:13;;;;;;;24.45;12.15;;;;;9.10;98504.00;;;;8284488;28;20239;-78
2023/12/16 12:06:17;;;;;;;25.38;12.82;;;;;9.20;98512.00;;;;8286989;28;20671;-76
2023/12/16 12:10:21;;;;;;;28.27;13.32;;;;;9.20;98511.00;;;;8285662;28;20209;-76
2023/12/16 12:14:25;;;;;;;26.50;12.93;;;;;9.30;98514.00;;;;8292046;28;20226;-77
2023/12/16 12:18:29;;;;;;;27.92;13.38;;;;;9.10;98517.00;;;;8283036;28;20887;-76
2023/12/16 12:22:33;;;;;;;24.90;11.35;;;;;9.10;98505.00;;;;8286110;28;20198;-77
2023/12/16 12:26:38;;;;;;;24.48;11.02;;;;;8.90;98513.00;;;;8287285;28;20671;-76
2023/12/16 12:30:41;;;;;;;28.40;11.35;;;;;8.70;98507.00;;;;8284700;28;20230;-76
2023/12/16 12:34:44;;;;;;;24.17;12.40;;;;;8.70;98489.00;;;;8284043;28;20265;-78
2023/12/16 12:38:53;;;;;;;24.87;11.00;;;;;8.60;98491.00;;;;8286279;28;20202;-77
2023/12/16 12:42:59;;;;;;;26.65;10.52;;;;;8.50;98494.00;;;;8285683;28;20233;-77
2023/12/16 12:47:03;;;;;;;17.97;8.83;;;;;8.40;98506.00;;;;8298751;28;20264;-78
2023/12/16 12:51:08;;;;;;;18.48;8.70;;;;;8.30;98487.00;;;;8292399;28;20324;-77
2023/12/16 12:55:12;;;;;;;16.73;7.97;;;;;8.20;98487.00;;;;8289786;28;20699;-77
2023/12/16 12:59:16;;;;;;;20.17;8.53;;;;;8.20;98476.00;;;;8289469;28;20202;-77
2023/12/16 13:03:41;;;;;;;16.00;8.17;;;;;8.20;98477.00;;;;8282426;28;20303;-77
2023/12/16 13:07:44;;;;;;;16.13;7.37;;;;;8.30;98464.00;;;;8279905;28;20627;-77
2023/12/16 13:11:47;;;;;;;18.95;7.75;;;;;8.30;98474.00;;;;8286059;28;20214;-77
2023/12/16 13:15:53;;;;;;;17.30;8.13;;;;;8.50;98464.00;;;;8282918;28;20226;-76
2023/12/16 13:19:59;;;;;;;17.93;5.97;;;;;8.60;98460.00;;;;8283525;28;20214;-76
2023/12/16 13:24:03;;;;;;;11.48;6.20;;;;;8.60;98448.00;;;;8283133;28;20202;-76
2023/12/16 13:28:06;;;;;;;15.03;5.67;;;;;8.70;98445.00;;;;8290845;28;20198;-76
2023/12/16 13:32:11;;;;;;;13.30;5.47;;;;;8.60;98456.00;;;;8279065;28;20202;-76
2023/12/16 13:36:14;;;;;;;13.07;6.00;;;;;8.50;98440.00;;;;8283581;28;20599;-76
2023/12/16 13:40:37;;;;;;;17.50;5.73;;;;;8.40;98438.00;;;;8282451;28;20651;-76
2023/12/16 13:44:51;;;;;;;12.27;6.20;;;;;8.40;98441.00;;;;8275841;28;20206;-76
2023/12/16 13:48:56;;;;;;;15.97;6.63;;;;;8.30;98422.00;;;;8283866;28;20281;-76
2023/12/16 13:52:59;;;;;;;15.70;7.10;;;;;8.20;98422.00;;;;8281254;28;20232;-76
2023/12/16 13:57:03;;;;;;;14.10;5.73;;;;;8.20;98417.00;;;;8282874;28;20241;-76
2023/12/16 14:01:07;;;;;;;11.07;6.07;;;;;8.10;98421.00;;;;8285601;28;20206;-76
2023/12/16 14:05:11;;;;;;;13.73;5.53;;;;;8.00;98418.00;;;;8283743;28;20234;-76
2023/12/16 14:09:15;;;;;;;11.85;4.90;;;;;7.80;98416.00;;;;8281433;28;20551;-76
2023/12/16 14:13:18;;;;;;;11.10;5.13;;;;;7.70;98416.00;;;;8280563;28;20703;-76
2023/12/16 14:17:21;;;;;;;14.70;4.95;;;;;7.50;98411.00;;;;8282477;28;20307;-76
2023/12/16 14:21:26;;;;;;;7.20;4.47;;;;;7.40;98419.00;;;;8282136;28;20307;-77
2023/12/16 14:25:29;;;;;;;12.00;4.37;;;;;7.30;98416.00;;;;8284954;28;20934;-76
2023/12/16 14:29:32;;;;;;;9.30;4.70;;;;;7.40;98411.00;;;;8293481;28;20444;-76
2023/12/16 14:33:35;;;;;;;9.23;4.30;;;;;7.40;98418.00;;;;8282059;28;21026;-76
2023/12/16 14:37:40;;;;;;;11.10;5.00;;;;;7.50;98414.00;;;;8282158;28;20690;-76
2023/12/16 14:41:44;;;;;;;9.43;4.50;;;;;7.60;98420.00;;;;8281050;28;20212;-76
2023/12/16 14:45:48;;;;;;;8.87;4.80;;;;;7.60;98417.00;;;;8282778;28;20214;-76
2023/12/16 14:49:52;;;;;;;6.70;3.90;;;;;7.60;98414.00;;;;8284050;28;20229;-76
2023/12/16 14:53:56;;;;;;;6.67;3.80;;;;;7.60;98408.00;;;;8282590;28;20222;-76
2023/12/16 14:57:59;;;;;;;9.93;3.77;;;;;7.60;98410.00;;;;8281038;28;20210;-76
2023/12/16 15:02:03;;;;;;;13.10;3.70;;;;;7.60;98409.00;;;;8280421;28;20545;-77
2023/12/16 15:06:07;;;;;;;9.83;3.87;;;;;7.50;98409.00;;;;8281462;28;20647;-76
2023/12/16 15:10:26;;;;;;;16.17;9.47;;;;;7.50;98411.00;;;;8282095;28;20287;-77
2023/12/16 15:14:29;;;;;;;18.23;10.80;;;;;7.40;98406.00;;;;8280233;28;20264;-77
2023/12/16 15:18:32;;;;;;;18.63;10.87;;;;;7.40;98394.00;;;;8282272;28;20198;-77
2023/12/16 15:22:36;;;;;;;19.85;9.60;;;;;7.40;98393.00;;;;8282385;28;20523;-77
2023/12/16 15:26:41;;;;;;;22.50;11.00;;;;;7.30;98382.00;;;;8281686;28;20222;-77
2023/12/16 15:30:44;;;;;;;20.53;11.07;;;;;7.30;98385.00;;;;8273296;28;20206;-77
2023/12/16 15:34:47;;;;;;;23.43;11.83;;;;;7.30;98394.00;;;;8280191;28;20233;-76
2023/12/16 15:38:51;;;;;;;24.33;12.83;;;;;7.20;98393.00;;;;8282984;28;20312;-77
2023/12/16 15:42:56;;;;;;;23.03;12.17;;;;;7.20;98404.00;;;;8280085;28;20744;-77
2023/12/16 15:46:59;;;;;;;29.07;14.23;;;;;7.10;98388.00;;;;8283352;28;20225;-77
2023/12/16 15:51:02;;;;;;;28.40;13.17;;;;;7.10;98397.00;;;;8286575;28;20644;-77
2023/12/16 15:55:06;;;;;;;24.10;12.50;;;;;6.90;98390.00;;;;8285105;28;20666;-77
2023/12/16 15:59:11;;;;;;;25.77;12.70;;;;;6.80;98394.00;;;;8293334;28;20218;-76
2023/12/16 16:03:14;;;;;;;27.30;14.33;;;;;6.70;98404.00;;;;8293352;28;20329;-77
2023/12/16 16:07:18;;;;;;;26.10;12.90;;;;;6.60;98394.00;;;;8287751;28;20205;-77
2023/12/16 16:11:21;;;;;;;26.37;12.90;;;;;6.60;98392.00;;;;8286160;28;20210;-76
2023/12/16 16:15:26;;;;;;;25.10;14.30;;;;;6.40;98399.00;;;;8286782;28;20770;-76
2023/12/16 16:19:29;;;;;;;24.00;13.10;;;;;6.20;98391.00;;;;8286340;28;20210;-76
2023/12/16 16:23:32;;;;;;;29.27;13.43;;;;;6.10;98374.00;;;;8290814;28;20240;-76
2023/12/16 16:27:36;;;;;;;28.43;12.90;;;;;5.90;98394.00;;;;8286567;28;20194;-76
2023/12/16 16:31:41;;;;;;;22.00;12.23;;;;;5.70;98392.00;;;;8285065;28;20236;-77
2023/12/16 16:35:44;;;;;;;24.77;13.00;;;;;5.50;98386.00;;;;8286190;28;20241;-76
2023/12/16 16:39:47;;;;;;;26.53;12.87;;;;;5.20;98386.00;;;;8282291;28;20240;-76
2023/12/16 16:43:51;;;;;;;26.33;12.83;;;;;5.00;98398.00;;;;8286176;28;20248;-77
2023/12/16 16:47:56;;;;;;;28.33;13.37;;;;;4.80;98395.00;;;;8284274;28;20296;-77
2023/12/16 16:51:59;;;;;;;30.80;15.50;;;;;4.60;98390.00;;;;8282725;28;20203;-77
2023/12/16 16:56:03;;;;;;;30.83;11.87;;;;;4.50;98424.00;;;;8286258;28;20687;-77
2023/12/16 17:00:08;;;;;;;25.43;11.37;;;;;4.30;98415.00;;;;8289249;28;20210;-77
2023/12/16 17:04:14;;;;;;;23.40;11.90;;;;;4.10;98429.00;;;;8284680;28;20316;-77
2023/12/16 17:08:18;;;;;;;24.43;11.60;;;;;3.90;98428.00;;;;8284182;28;20214;-77
2023/12/16 17:12:21;;;;;;;27.33;11.07;;;;;3.70;98428.00;;;;8286829;28;20213;-77
2023/12/16 17:16:24;;;;;;;25.13;11.30;;;;;3.50;98428.00;;;;8286508;28;20229;-77
2023/12/16 17:20:28;;;;;;;31.63;12.93;;;;;3.50;98445.00;;;;8284976;28;20238;-77
2023/12/16 17:24:33;;;;;;;27.10;11.33;;;;;3.40;98433.00;;;;8281836;28;20212;-77
2023/12/16 17:28:36;;;;;;;24.83;10.00;;;;;3.50;98430.00;;;;8285764;28;20224;-77
2023/12/16 17:32:39;;;;;;;26.47;12.27;;;;;3.50;98428.00;;;;8285900;28;20309;-77
2023/12/16 17:36:44;;;;;;;31.97;14.03;;;;;3.60;98419.00;;;;8284382;28;20738;-77
2023/12/16 17:40:47;;;;;;;28.30;13.30;;;;;3.80;98421.00;;;;8282852;28;20560;-78
2023/12/16 17:44:50;;;;;;;21.27;8.50;;;;;4.00;98425.00;;;;8287915;28;20631;-77
2023/12/16 17:48:55;;;;;;;25.87;10.73;;;;;4.00;98409.00;;;;8282530;28;20682;-77
2023/12/16 17:53:00;;;;;;;22.77;9.83;;;;;3.90;98409.00;;;;8283846;28;20210;-77
2023/12/16 17:57:06;;;;;;;23.20;11.63;;;;;3.70;98398.00;;;;8280418;28;20225;-78
2023/12/16 18:01:10;;;;;;;23.63;11.10;;;;;3.60;98394.00;;;;8284739;28;20301;-77
2023/12/16 18:05:15;;;;;;;24.57;10.67;;;;;3.60;98393.00;;;;8282839;28;20242;-78
2023/12/16 18:09:20;;;;;;;21.70;9.33;;;;;3.40;98392.00;;;;8293956;28;20224;-78
2023/12/16 18:13:23;;;;;;;18.37;8.23;;;;;3.20;98391.00;;;;8295020;28;20671;-77
2023/12/16 18:17:26;;;;;;;19.53;9.20;;;;;3.10;98382.00;;;;8282677;28;20233;-78
2023/12/16 18:21:30;;;;;;;23.33;10.53;;;;;3.00;98392.00;;;;8282959;28;20701;-78
2023/12/16 18:25:34;;;;;;;21.13;8.53;;;;;2.80;98407.00;;;;8282692;28;20311;-78
2023/12/16 18:29:38;;;;;;;18.40;8.47;;;;;2.50;98393.00;;;;8285953;28;20232;-78
2023/12/16 18:33:41;;;;;;;23.87;10.70;;;;;2.40;98393.00;;;;8282276;28;21008;-78
2023/12/16 18:37:45;;;;;;;17.77;9.30;;;;;2.30;98406.00;;;;8282092;28;20251;-77
2023/12/16 18:41:51;;;;;;;34.67;12.63;;;;;2.20;98412.00;;;;8280058;28;20295;-77
2023/12/16 18:45:54;;;;;;;34.93;14.33;;;;;2.20;98418.00;;;;8289988;28;20212;-77
2023/12/16 18:49:59;;;;;;;31.77;13.67;;;;;2.10;98428.00;;;;8280955;28;20235;-77
2023/12/16 18:54:02;;;;;;;33.83;13.90;;;;;2.10;98432.00;;;;8282145;28;20207;-78
2023/12/16 18:58:07;;;;;;;32.30;13.27;;;;;2.00;98444.00;;;;8287270;28;20273;-78
2023/12/16 19:02:11;;;;;;;23.40;11.87;;;;;2.00;98455.00;;;;8279842;28;20304;-78
2023/12/16 19:06:14;;;;;;;21.20;10.77;;;;;1.90;98456.00;;;;8282082;28;20602;-78
2023/12/16 19:10:19;;;;;;;33.43;12.23;;;;;1.80;98462.00;;;;8281549;28;20195;-79
2023/12/16 19:14:24;;;;;;;21.63;8.67;;;;;1.90;98459.00;;;;8284273;28;20217;-79
2023/12/16 19:18:27;;;;;;;19.47;8.60;;;;;1.90;98462.00;;;;8281692;28;20221;-78
2023/12/16 19:22:31;;;;;;;20.90;8.53;;;;;1.90;98467.00;;;;8282657;28;20673;-78
2023/12/16 19:26:34;;;;;;;22.17;9.73;;;;;1.90;98461.00;;;;8289508;28;20927;-78
2023/12/16 19:30:40;;;;;;;39.77;13.53;;;;;1.90;98452.00;;;;8287197;28;20581;-78
2023/12/16 19:34:43;;;;;;;23.63;10.90;;;;;1.90;98452.00;;;;8287610;28;20291;-78
2023/12/16 19:38:46;;;;;;;27.73;11.20;;;;;1.90;98467.00;;;;8287909;28;20215;-78
2023/12/16 19:42:49;;;;;;;28.80;10.77;;;;;1.70;98463.00;;;;8287334;28;20221;-77
2023/12/16 19:46:54;;;;;;;30.67;13.43;;;;;1.70;98468.00;;;;8287431;28;20299;-78
2023/12/16 19:50:57;;;;;;;28.80;12.37;;;;;1.70;98463.00;;;;8289111;28;20199;-78
2023/12/16 19:55:01;;;;;;;32.87;13.03;;;;;1.70;98476.00;;;;8290441;28;20213;-78
2023/12/16 19:59:04;;;;;;;37.03;12.00;;;;;1.60;98479.00;;;;8286092;28;20202;-77
2023/12/16 20:03:09;;;;;;;23.80;11.00;;;;;1.50;98480.00;;;;8290440;28;20238;-77
2023/12/16 20:07:12;;;;;;;23.93;10.43;;;;;1.40;98482.00;;;;8290574;28;20212;-78
2023/12/16 20:11:15;;;;;;;27.57;10.63;;;;;1.30;98477.00;;;;8289835;28;20240;-78